Time;durP1;ratioP1;P1;durP2;ratioP2;P2;SDS_P1;SDS_P2;PMS_P1;PMS_P2;Temp;Humidity;BMP_temperature;BMP_pressure;BME280_temperature;BME280_humidity;BME280_pressure;Samples;Min_cycle;Max_cycle;Signal;HPM_P1;HPM_P2
2023/08/01 00:00:45;;;;;;;3.60;3.60;;;;;;;16.10;93.12;99602.34;4994294;28;20687;-72
2023/08/01 00:03:13;;;;;;;3.10;3.10;;;;;;;16.12;93.15;99604.84;4994766;28;20292;-72
2023/08/01 00:05:44;;;;;;;3.57;3.30;;;;;;;16.09;93.45;99603.38;4994589;28;20207;-72
2023/08/01 00:08:14;;;;;;;4.27;2.97;;;;;;;16.10;93.43;99605.06;4994869;28;20180;-72
2023/08/01 00:10:41;;;;;;;3.27;3.27;;;;;;;16.10;93.53;99596.97;4994773;28;20184;-72
2023/08/01 00:13:08;;;;;;;4.03;3.83;;;;;;;16.12;93.26;99594.06;4994358;28;20212;-72
2023/08/01 00:15:35;;;;;;;4.97;4.77;;;;;;;16.05;93.60;99583.28;4994411;28;20248;-72
2023/08/01 00:18:02;;;;;;;4.77;4.67;;;;;;;16.16;93.18;99579.09;4994386;28;20201;-72
2023/08/01 00:20:28;;;;;;;4.10;4.00;;;;;;;16.18;93.10;99580.53;4993675;28;20263;-72
2023/08/01 00:22:55;;;;;;;3.30;3.30;;;;;;;16.19;92.83;99576.81;4994802;28;20272;-72
2023/08/01 00:25:21;;;;;;;3.13;1.93;;;;;;;16.12;92.88;99584.13;4994297;28;20185;-72
2023/08/01 00:27:48;;;;;;;1.67;1.67;;;;;;;16.07;93.29;99569.59;4994256;28;20231;-72
2023/08/01 00:30:14;;;;;;;1.40;1.40;;;;;;;16.03;92.76;99571.91;4994232;28;20185;-72
2023/08/01 00:32:42;;;;;;;1.50;1.40;;;;;;;16.07;93.31;99567.75;4992838;28;20193;-72
2023/08/01 00:35:08;;;;;;;1.60;1.50;;;;;;;16.03;93.37;99561.13;4994388;28;20189;-72
2023/08/01 00:37:35;;;;;;;1.03;1.03;;;;;;;16.04;93.36;99554.66;4994647;28;20193;-72
2023/08/01 00:40:01;;;;;;;1.20;1.20;;;;;;;16.09;93.34;99552.16;4994158;28;20723;-72
2023/08/01 00:42:28;;;;;;;1.20;1.20;;;;;;;16.06;93.36;99549.06;4994244;28;20189;-72
2023/08/01 00:44:54;;;;;;;1.50;1.50;;;;;;;16.08;93.12;99547.00;4993029;28;20234;-72
2023/08/01 00:47:21;;;;;;;1.40;1.40;;;;;;;16.04;93.17;99546.59;4994003;28;20251;-72
2023/08/01 00:49:47;;;;;;;1.20;1.20;;;;;;;16.07;93.10;99537.25;4992703;28;20197;-72
2023/08/01 00:52:14;;;;;;;1.70;1.50;;;;;;;16.05;93.18;99539.31;4992907;28;20678;-72
2023/08/01 00:54:41;;;;;;;1.57;1.57;;;;;;;16.04;93.21;99541.19;4992634;28;20627;-72
2023/08/01 00:57:08;;;;;;;1.77;1.77;;;;;;;15.98;93.29;99532.13;4994192;28;20625;-72
2023/08/01 00:59:35;;;;;;;1.80;1.80;;;;;;;16.04;94.12;99535.00;4993809;28;20223;-72
2023/08/01 01:02:02;;;;;;;1.57;1.57;;;;;;;15.99;93.53;99520.31;4992639;28;20204;-72
2023/08/01 01:04:28;;;;;;;4.53;2.10;;;;;;;16.05;93.26;99515.06;4993748;28;20213;-72
2023/08/01 01:07:03;;;;;;;2.20;1.40;;;;;;;16.08;93.21;99517.34;5008953;28;20259;-72
2023/08/01 01:09:33;;;;;;;1.90;1.90;;;;;;;16.05;93.28;99523.16;4994348;28;20567;-72
2023/08/01 01:12:00;;;;;;;1.70;1.70;;;;;;;16.04;93.19;99518.81;4995247;28;20248;-72
2023/08/01 01:14:27;;;;;;;1.83;1.83;;;;;;;16.09;93.29;99513.59;4997875;28;20695;-72
2023/08/01 01:16:54;;;;;;;3.50;1.60;;;;;;;16.05;93.19;99506.97;4997749;28;20276;-72
2023/08/01 01:19:20;;;;;;;1.63;1.53;;;;;;;16.05;93.51;99518.59;4997638;28;20213;-72
2023/08/01 01:21:48;;;;;;;1.67;1.67;;;;;;;16.08;93.22;99512.78;4997686;28;20235;-72
2023/08/01 01:24:15;;;;;;;2.50;2.17;;;;;;;16.02;93.37;99512.81;4997618;28;20584;-72
2023/08/01 01:26:43;;;;;;;1.97;1.97;;;;;;;15.98;93.24;99515.94;4997852;28;20197;-72
2023/08/01 01:29:11;;;;;;;2.27;2.27;;;;;;;15.88;93.46;99514.75;4997513;28;20225;-72
2023/08/01 01:31:38;;;;;;;1.90;1.83;;;;;;;15.93;93.09;99504.97;4997517;28;20193;-72
2023/08/01 01:34:04;;;;;;;1.93;1.93;;;;;;;15.86;93.11;99497.97;4996100;28;20638;-72
2023/08/01 01:36:31;;;;;;;1.93;1.93;;;;;;;15.86;93.56;99490.72;4997976;28;20181;-72
2023/08/01 01:38:58;;;;;;;2.00;2.00;;;;;;;15.88;93.55;99480.53;4996056;28;20570;-72
2023/08/01 01:41:25;;;;;;;1.77;1.73;;;;;;;15.86;93.34;99477.25;4997352;28;20259;-72
2023/08/01 01:43:51;;;;;;;2.00;1.90;;;;;;;15.86;93.00;99468.31;4996034;28;20618;-72
2023/08/01 01:46:18;;;;;;;1.57;1.57;;;;;;;15.86;92.83;99460.25;4996158;28;20186;-72
2023/08/01 01:48:44;;;;;;;2.00;2.00;;;;;;;15.87;93.09;99461.91;4997441;28;20192;-72
2023/08/01 01:51:11;;;;;;;3.03;1.70;;;;;;;15.87;93.17;99470.78;4997154;28;20181;-72
2023/08/01 01:53:37;;;;;;;2.83;1.73;;;;;;;15.88;93.01;99461.66;4997027;28;20634;-72
2023/08/01 01:56:04;;;;;;;1.43;1.43;;;;;;;15.86;92.91;99454.84;4997302;28;20197;-72
2023/08/01 01:58:30;;;;;;;3.33;1.53;;;;;;;15.85;92.53;99467.50;4995796;28;20239;-72
2023/08/01 02:00:56;;;;;;;1.80;1.70;;;;;;;15.89;93.02;99460.63;4995628;28;20228;-72
2023/08/01 02:03:23;;;;;;;2.30;2.20;;;;;;;15.84;92.47;99452.38;4996849;28;20213;-72
2023/08/01 02:05:49;;;;;;;3.03;1.77;;;;;;;15.86;92.64;99444.91;4995604;28;20260;-72
2023/08/01 02:08:17;;;;;;;2.10;2.10;;;;;;;15.81;92.28;99454.66;5011900;28;20208;-73
2023/08/01 02:10:43;;;;;;;1.93;1.93;;;;;;;15.80;93.38;99453.00;4995921;28;20177;-73
2023/08/01 02:13:09;;;;;;;2.20;2.20;;;;;;;15.77;92.98;99458.84;4995459;28;20699;-72
2023/08/01 02:15:36;;;;;;;2.53;2.53;;;;;;;15.78;91.79;99464.03;4995394;28;20561;-73
2023/08/01 02:18:03;;;;;;;2.20;2.13;;;;;;;15.81;92.71;99466.28;4995332;28;20668;-73
2023/08/01 02:20:29;;;;;;;2.03;2.03;;;;;;;15.79;92.27;99460.25;4995258;28;20271;-72
2023/08/01 02:22:56;;;;;;;2.10;2.10;;;;;;;15.80;92.41;99466.47;4995047;28;20719;-72
2023/08/01 02:25:22;;;;;;;5.90;3.00;;;;;;;15.83;92.34;99463.34;4995270;28;20565;-72
2023/08/01 02:27:49;;;;;;;2.87;2.67;;;;;;;15.70;92.75;99468.84;4995185;28;20201;-73
2023/08/01 02:30:15;;;;;;;13.13;4.00;;;;;;;15.74;92.85;99467.38;4996672;28;20185;-73
2023/08/01 02:32:42;;;;;;;5.93;5.40;;;;;;;15.73;92.53;99460.31;4995634;28;20229;-72
2023/08/01 02:35:09;;;;;;;5.87;5.63;;;;;;;15.79;92.53;99462.97;4996300;28;20276;-72
2023/08/01 02:37:35;;;;;;;5.50;5.13;;;;;;;15.75;92.44;99466.28;4995053;28;20272;-72
2023/08/01 02:40:08;;;;;;;6.27;5.97;;;;;;;15.83;92.55;99468.75;4996442;28;20205;-72
2023/08/01 02:42:34;;;;;;;7.43;6.80;;;;;;;15.79;92.68;99459.44;4994904;28;20218;-72
2023/08/01 02:45:00;;;;;;;12.03;7.47;;;;;;;15.85;92.40;99458.59;4996137;28;20235;-72
2023/08/01 02:47:27;;;;;;;6.90;6.40;;;;;;;15.82;92.66;99462.56;4996092;28;20679;-72
2023/08/01 02:49:53;;;;;;;8.33;7.43;;;;;;;15.85;92.72;99467.50;4996042;28;20194;-73
2023/08/01 02:52:20;;;;;;;8.57;7.90;;;;;;;15.81;92.14;99478.94;4996035;28;20185;-73
2023/08/01 02:54:46;;;;;;;9.23;7.10;;;;;;;15.84;92.71;99481.19;5011180;28;20213;-73
2023/08/01 02:57:13;;;;;;;7.90;7.40;;;;;;;15.88;92.59;99474.31;4994966;28;20201;-73
2023/08/01 02:59:39;;;;;;;11.70;7.60;;;;;;;15.83;93.01;99477.66;4996088;28;20189;-73
2023/08/01 03:02:05;;;;;;;9.97;9.03;;;;;;;15.81;92.64;99479.75;4995777;28;20213;-72
2023/08/01 03:04:32;;;;;;;8.23;7.73;;;;;;;15.84;92.84;99478.47;4995795;28;20259;-72
2023/08/01 03:07:12;;;;;;;9.90;8.90;;;;;;;15.81;92.95;99479.75;4996309;28;20232;-72
2023/08/01 03:09:38;;;;;;;10.50;9.67;;;;;;;15.84;92.90;99479.31;4995670;28;20196;-72
2023/08/01 03:12:05;;;;;;;11.47;9.30;;;;;;;15.86;92.88;99481.81;4995495;28;20185;-72
2023/08/01 03:14:32;;;;;;;10.87;8.57;;;;;;;15.87;92.81;99475.38;4995789;28;20216;-72
2023/08/01 03:16:58;;;;;;;10.63;9.63;;;;;;;15.83;92.88;99484.91;4995545;28;20572;-72
2023/08/01 03:19:24;;;;;;;11.77;9.73;;;;;;;15.79;92.60;99483.69;4994229;28;20200;-72
2023/08/01 03:21:51;;;;;;;10.20;9.40;;;;;;;15.82;92.96;99485.97;4994000;28;20585;-72
2023/08/01 03:24:17;;;;;;;11.03;9.73;;;;;;;15.80;92.80;99488.03;4994044;28;20228;-72
2023/08/01 03:26:44;;;;;;;10.47;9.57;;;;;;;15.82;92.77;99497.59;4994109;28;20201;-72
2023/08/01 03:29:10;;;;;;;10.93;10.13;;;;;;;15.80;92.38;99493.44;4995350;28;20537;-72
2023/08/01 03:31:36;;;;;;;12.03;10.93;;;;;;;15.80;92.59;99494.25;4993972;28;20196;-72
2023/08/01 03:34:03;;;;;;;12.77;11.07;;;;;;;15.79;92.56;99491.78;4994994;28;20209;-72
2023/08/01 03:36:30;;;;;;;11.97;10.83;;;;;;;15.84;92.32;99490.09;4993792;28;20208;-72
2023/08/01 03:38:56;;;;;;;11.37;10.10;;;;;;;15.81;92.44;99495.09;4993895;28;20227;-72
2023/08/01 03:41:22;;;;;;;14.33;11.50;;;;;;;15.79;92.41;99495.28;4993745;28;20264;-72
2023/08/01 03:43:49;;;;;;;11.30;10.47;;;;;;;15.77;92.51;99499.25;5010033;28;20636;-72
2023/08/01 03:46:15;;;;;;;13.30;11.70;;;;;;;15.73;92.59;99498.88;4993695;28;20189;-73
2023/08/01 03:48:43;;;;;;;15.20;11.33;;;;;;;15.70;92.40;99498.47;4994961;28;20613;-73
2023/08/01 03:51:09;;;;;;;16.30;11.07;;;;;;;15.64;92.67;99504.72;4994855;28;20209;-73
2023/08/01 03:53:36;;;;;;;17.87;11.80;;;;;;;15.56;92.61;99505.78;4993538;28;20217;-73
2023/08/01 03:56:03;;;;;;;13.33;11.47;;;;;;;15.61;92.59;99515.91;4993538;28;20216;-73
2023/08/01 03:58:29;;;;;;;15.80;12.10;;;;;;;15.60;92.13;99515.09;4994715;28;20251;-72
2023/08/01 04:00:56;;;;;;;20.20;10.63;;;;;;;15.49;93.26;99513.00;4994859;28;20205;-72
2023/08/01 04:03:22;;;;;;;15.83;11.53;;;;;;;15.46;92.18;99521.53;4994864;28;20208;-72
2023/08/01 04:05:49;;;;;;;16.83;12.37;;;;;;;15.45;92.38;99512.63;4993407;28;20189;-72
2023/08/01 04:08:15;;;;;;;24.07;11.80;;;;;;;15.45;92.63;99518.00;4995066;28;20185;-72
2023/08/01 04:10:41;;;;;;;13.57;12.17;;;;;;;15.49;91.68;99518.41;4994815;28;20232;-72
2023/08/01 04:13:08;;;;;;;15.63;12.10;;;;;;;15.48;92.30;99514.06;4994409;28;20252;-72
2023/08/01 04:15:34;;;;;;;13.93;12.03;;;;;;;15.47;92.81;99512.41;4994441;28;20217;-72
2023/08/01 04:18:01;;;;;;;13.97;10.73;;;;;;;15.46;92.11;99519.66;4994460;28;20185;-72
2023/08/01 04:20:27;;;;;;;14.37;11.73;;;;;;;15.47;92.08;99526.72;4994266;28;20219;-72
2023/08/01 04:22:54;;;;;;;18.03;12.90;;;;;;;15.43;91.93;99522.78;4994205;28;20604;-72
2023/08/01 04:25:20;;;;;;;12.23;10.93;;;;;;;15.41;92.02;99515.94;4994807;28;20201;-72
2023/08/01 04:27:47;;;;;;;16.80;12.43;;;;;;;15.42;92.09;99526.50;4994253;28;20727;-72
2023/08/01 04:30:13;;;;;;;16.23;11.70;;;;;;;15.40;91.82;99527.78;4994790;28;20190;-74
2023/08/01 04:32:39;;;;;;;21.40;11.17;;;;;;;15.41;91.30;99527.56;4994413;28;20620;-74
2023/08/01 04:35:06;;;;;;;17.97;12.57;;;;;;;15.40;91.66;99522.41;4994738;28;20198;-74
2023/08/01 04:37:33;;;;;;;25.00;12.43;;;;;;;15.41;91.56;99524.84;4994206;28;20197;-74
2023/08/01 04:39:59;;;;;;;29.67;14.27;;;;;;;15.39;91.81;99518.03;4994645;28;20193;-74
2023/08/01 04:42:26;;;;;;;20.43;12.80;;;;;;;15.41;91.55;99524.03;4992784;28;20205;-73
2023/08/01 04:44:52;;;;;;;21.80;13.87;;;;;;;15.39;91.83;99515.34;4994046;28;20193;-73
2023/08/01 04:47:19;;;;;;;27.50;14.33;;;;;;;15.33;91.77;99522.41;4993116;28;20255;-73
2023/08/01 04:49:45;;;;;;;20.93;14.03;;;;;;;15.34;91.92;99521.38;4994306;28;20177;-73
2023/08/01 04:52:12;;;;;;;28.80;14.00;;;;;;;15.38;92.29;99521.75;4994445;28;20309;-73
2023/08/01 04:54:39;;;;;;;26.00;14.87;;;;;;;15.31;92.46;99529.03;4994693;28;20539;-73
2023/08/01 04:57:05;;;;;;;32.47;13.90;;;;;;;15.38;92.04;99535.22;4993910;28;20189;-73
2023/08/01 04:59:32;;;;;;;26.87;14.17;;;;;;;15.37;91.86;99537.09;4994371;28;20182;-73
2023/08/01 05:01:58;;;;;;;24.83;13.83;;;;;;;15.36;92.08;99535.44;4992522;28;20221;-73
2023/08/01 05:04:25;;;;;;;32.07;14.13;;;;;;;15.35;91.80;99538.34;4993723;28;20209;-73
2023/08/01 05:06:51;;;;;;;23.43;14.90;;;;;;;15.41;91.48;99543.72;4993788;28;20184;-73
2023/08/01 05:09:18;;;;;;;31.67;15.13;;;;;;;15.40;91.63;99535.84;4993596;28;20201;-73
2023/08/01 05:11:44;;;;;;;50.20;15.83;;;;;;;15.37;91.82;99538.94;4993794;28;20239;-73
2023/08/01 05:14:11;;;;;;;19.33;14.30;;;;;;;15.36;91.23;99540.81;4993637;28;20259;-73
2023/08/01 05:16:37;;;;;;;20.73;14.70;;;;;;;15.39;91.03;99548.50;4993992;28;20189;-73
2023/08/01 05:19:04;;;;;;;21.87;13.70;;;;;;;15.40;91.09;99547.44;4994483;28;20280;-73
2023/08/01 05:21:31;;;;;;;33.07;14.30;;;;;;;15.43;91.04;99548.91;4993608;28;20271;-73
2023/08/01 05:23:57;;;;;;;23.67;14.23;;;;;;;15.41;91.52;99557.16;4993837;28;20209;-73
2023/08/01 05:26:24;;;;;;;32.67;14.47;;;;;;;15.43;91.65;99554.28;4993659;28;20236;-73
2023/08/01 05:28:51;;;;;;;23.40;14.63;;;;;;;15.49;91.06;99554.25;4993580;28;20240;-73
2023/08/01 05:31:17;;;;;;;25.40;14.70;;;;;;;15.42;91.38;99555.31;4994107;28;20185;-73
2023/08/01 05:33:43;;;;;;;22.93;14.03;;;;;;;15.46;91.63;99561.94;4993517;28;20209;-72
2023/08/01 05:36:10;;;;;;;18.53;14.70;;;;;;;15.41;91.28;99564.41;4993779;28;20186;-73
2023/08/01 05:38:36;;;;;;;26.77;15.00;;;;;;;15.49;91.30;99559.63;4993508;28;20189;-73
2023/08/01 05:41:03;;;;;;;24.07;15.97;;;;;;;15.48;91.52;99563.41;4993382;28;20209;-73
2023/08/01 05:43:29;;;;;;;24.17;15.43;;;;;;;15.52;91.03;99570.03;4993694;28;20267;-73
2023/08/01 05:45:56;;;;;;;27.97;17.07;;;;;;;15.51;91.62;99570.25;4993439;28;20193;-73
2023/08/01 05:48:22;;;;;;;23.50;15.07;;;;;;;15.59;91.21;99571.88;4993663;28;20204;-73
2023/08/01 05:50:49;;;;;;;22.03;15.07;;;;;;;15.52;91.03;99574.59;4993410;28;20189;-73
2023/08/01 05:53:15;;;;;;;22.30;15.23;;;;;;;15.53;91.43;99570.88;4993369;28;20209;-73
2023/08/01 05:55:42;;;;;;;23.40;15.40;;;;;;;15.57;91.33;99576.66;4993422;28;20226;-73
2023/08/01 05:58:08;;;;;;;21.27;15.73;;;;;;;15.49;91.41;99580.34;4994864;28;20197;-73
2023/08/01 06:00:35;;;;;;;24.30;15.65;;;;;;;15.51;91.63;99576.47;4997094;28;20722;-73
2023/08/01 06:03:01;;;;;;;20.27;15.80;;;;;;;15.51;91.80;99570.25;4997052;28;20216;-73
2023/08/01 06:05:28;;;;;;;26.20;16.17;;;;;;;15.54;91.63;99573.34;4997081;28;20193;-73
2023/08/01 06:07:54;;;;;;;28.07;16.50;;;;;;;15.61;91.64;99580.59;4997057;28;20189;-73
2023/08/01 06:10:22;;;;;;;32.33;15.93;;;;;;;15.59;91.53;99574.56;4997032;28;20193;-74
2023/08/01 06:12:48;;;;;;;22.37;14.07;;;;;;;15.54;91.37;99573.34;4996661;28;20236;-74
2023/08/01 06:15:15;;;;;;;30.27;14.63;;;;;;;15.54;91.37;99585.97;4996653;28;20268;-74
2023/08/01 06:17:41;;;;;;;31.60;16.93;;;;;;;15.51;91.37;99589.09;4996897;28;20556;-74
2023/08/01 06:20:08;;;;;;;23.13;16.63;;;;;;;15.51;91.32;99587.22;4996602;28;20201;-73
2023/08/01 06:22:35;;;;;;;27.53;15.83;;;;;;;15.56;91.77;99588.47;4996373;28;20229;-73
2023/08/01 06:25:01;;;;;;;26.37;15.27;;;;;;;15.54;91.31;99591.34;4996765;28;20235;-73
2023/08/01 06:27:27;;;;;;;24.07;15.60;;;;;;;15.58;91.09;99591.75;4995282;28;20252;-73
2023/08/01 06:29:54;;;;;;;23.37;16.90;;;;;;;15.64;90.83;99580.97;4996688;28;20182;-73
2023/08/01 06:32:20;;;;;;;29.43;15.63;;;;;;;15.71;90.97;99589.03;4996900;28;20193;-74
2023/08/01 06:34:47;;;;;;;20.97;15.60;;;;;;;15.73;90.75;99581.56;4996318;28;20213;-73
2023/08/01 06:37:13;;;;;;;35.93;16.20;;;;;;;15.72;90.31;99586.13;4996580;28;20598;-73
2023/08/01 06:39:40;;;;;;;21.33;16.00;;;;;;;15.65;89.98;99582.66;4996241;28;20252;-73
2023/08/01 06:42:06;;;;;;;35.93;16.20;;;;;;;15.72;90.11;99588.00;4996479;28;20616;-73
2023/08/01 06:44:33;;;;;;;26.80;15.73;;;;;;;15.69;90.42;99573.09;4996169;28;20576;-73
2023/08/01 06:47:00;;;;;;;26.30;15.90;;;;;;;15.69;89.94;99586.56;4996913;28;20240;-73
2023/08/01 06:49:26;;;;;;;35.23;16.13;;;;;;;15.67;89.89;99585.09;4996570;28;20190;-73
2023/08/01 06:51:52;;;;;;;25.73;15.97;;;;;;;15.71;90.11;99592.56;4996112;28;20210;-74
2023/08/01 06:54:19;;;;;;;25.97;15.90;;;;;;;15.75;90.06;99598.34;4995944;28;20569;-73
2023/08/01 06:56:47;;;;;;;25.70;15.43;;;;;;;15.82;90.08;99586.53;4995870;28;20193;-73
2023/08/01 06:59:14;;;;;;;25.33;15.60;;;;;;;15.89;89.98;99590.00;4995862;28;20217;-73
2023/08/01 07:01:43;;;;;;;24.53;15.13;;;;;;;15.96;89.31;99595.34;4996096;28;20725;-73
2023/08/01 07:04:10;;;;;;;30.93;17.00;;;;;;;15.93;89.85;99596.63;4995709;28;20259;-73
2023/08/01 07:06:37;;;;;;;25.77;14.23;;;;;;;16.00;89.47;99594.72;4994840;28;20649;-73
2023/08/01 07:09:04;;;;;;;22.83;15.00;;;;;;;16.05;89.09;99602.16;4994900;28;20182;-74
2023/08/01 07:11:30;;;;;;;21.67;14.47;;;;;;;15.99;89.33;99600.34;4995385;28;20240;-73
2023/08/01 07:13:57;;;;;;;36.23;15.07;;;;;;;15.98;88.77;99607.59;4996125;28;20200;-73
2023/08/01 07:16:23;;;;;;;20.97;13.57;;;;;;;16.00;88.71;99608.19;4995537;28;20197;-73
2023/08/01 07:18:50;;;;;;;26.30;14.90;;;;;;;16.01;89.06;99611.72;4995796;28;20580;-73
2023/08/01 07:21:17;;;;;;;22.73;13.57;;;;;;;15.97;88.91;99615.91;4995567;28;20264;-73
2023/08/01 07:23:43;;;;;;;29.40;14.43;;;;;;;15.91;88.97;99606.78;4995320;28;20205;-73
2023/08/01 07:26:10;;;;;;;16.63;12.93;;;;;;;15.89;89.49;99605.34;4995572;28;20195;-73
2023/08/01 07:28:36;;;;;;;17.87;14.67;;;;;;;15.89;89.14;99608.88;4994250;28;20194;-73
2023/08/01 07:31:05;;;;;;;20.97;14.57;;;;;;;15.97;89.28;99613.19;4995839;28;20185;-74
2023/08/01 07:33:33;;;;;;;24.13;15.13;;;;;;;16.00;89.24;99608.19;4995676;28;20205;-73
2023/08/01 07:35:59;;;;;;;25.23;14.03;;;;;;;16.05;88.98;99612.13;4995173;28;20197;-73
2023/08/01 07:38:31;;;;;;;25.43;14.20;;;;;;;16.11;89.08;99617.50;4995667;28;20189;-73
2023/08/01 07:41:03;;;;;;;18.77;12.90;;;;;;;16.17;88.89;99616.63;4995684;28;20177;-73
2023/08/01 07:43:30;;;;;;;24.23;13.87;;;;;;;16.12;88.54;99613.78;4994954;28;20236;-73
2023/08/01 07:45:57;;;;;;;16.60;13.07;;;;;;;16.15;87.22;99609.81;4994986;28;20637;-73
2023/08/01 07:48:24;;;;;;;22.20;13.33;;;;;;;16.19;88.09;99616.41;4995145;28;20193;-73
2023/08/01 07:50:51;;;;;;;18.63;12.10;;;;;;;16.25;87.50;99619.06;4995128;28;20198;-73
2023/08/01 07:53:17;;;;;;;17.70;13.33;;;;;;;16.35;85.74;99613.22;4994796;28;20201;-72
2023/08/01 07:55:44;;;;;;;19.13;12.43;;;;;;;16.40;86.67;99619.63;4994836;28;20533;-73
2023/08/01 07:58:10;;;;;;;23.20;12.53;;;;;;;16.45;87.05;99621.69;4994767;28;20240;-73
2023/08/01 08:00:37;;;;;;;19.77;12.07;;;;;;;16.59;86.75;99625.16;4994827;28;20276;-73
2023/08/01 08:03:05;;;;;;;19.47;12.27;;;;;;;16.54;85.26;99620.38;4994789;28;20679;-72
2023/08/01 08:05:32;;;;;;;14.33;10.97;;;;;;;16.60;85.23;99627.63;4995156;28;20185;-73
2023/08/01 08:07:58;;;;;;;12.47;10.47;;;;;;;16.61;84.91;99628.47;4994580;28;20667;-72
2023/08/01 08:10:25;;;;;;;24.77;10.97;;;;;;;16.64;85.04;99633.41;4994756;28;20707;-73
2023/08/01 08:12:51;;;;;;;10.73;9.60;;;;;;;16.57;84.73;99629.91;4994814;28;20220;-72
2023/08/01 08:15:19;;;;;;;11.73;10.03;;;;;;;16.61;84.57;99633.84;4995034;28;20244;-73
2023/08/01 08:17:45;;;;;;;15.53;10.33;;;;;;;16.58;85.20;99632.44;4994670;28;20189;-73
2023/08/01 08:20:12;;;;;;;13.77;10.17;;;;;;;16.69;84.76;99636.28;4994447;28;20280;-72
2023/08/01 08:22:38;;;;;;;16.30;10.63;;;;;;;16.63;84.69;99629.09;4994250;28;20205;-72
2023/08/01 08:25:05;;;;;;;10.00;9.40;;;;;;;16.67;85.42;99624.91;4994356;28;20730;-73
2023/08/01 08:27:31;;;;;;;12.43;11.23;;;;;;;16.75;84.27;99636.28;4994270;28;20197;-73
2023/08/01 08:29:58;;;;;;;10.93;10.03;;;;;;;16.79;84.53;99626.69;4994527;28;20193;-72
2023/08/01 08:32:24;;;;;;;22.50;10.73;;;;;;;16.79;85.18;99640.19;4994445;28;20557;-72
2023/08/01 08:34:51;;;;;;;16.87;10.63;;;;;;;16.66;84.46;99637.56;4994140;28;20196;-73
2023/08/01 08:37:17;;;;;;;13.83;10.93;;;;;;;16.65;85.39;99645.88;4994138;28;20243;-72
2023/08/01 08:39:43;;;;;;;12.20;9.77;;;;;;;16.58;85.24;99637.81;4994378;28;20660;-73
2023/08/01 08:42:10;;;;;;;13.23;10.90;;;;;;;16.55;86.14;99640.09;4994259;28;20699;-73
2023/08/01 08:44:43;;;;;;;11.10;10.30;;;;;;;16.64;85.67;99642.34;4993984;28;20209;-72
2023/08/01 08:47:12;;;;;;;14.13;11.67;;;;;;;16.84;85.29;99634.97;4994043;28;20215;-73
2023/08/01 08:49:40;;;;;;;19.03;10.60;;;;;;;17.08;85.14;99627.91;4994505;28;20192;-73
2023/08/01 08:52:07;;;;;;;18.60;11.53;;;;;;;17.02;83.49;99630.66;4993966;28;20189;-73
2023/08/01 08:54:35;;;;;;;10.33;9.73;;;;;;;16.89;84.53;99634.28;4993839;28;20279;-73
2023/08/01 08:57:06;;;;;;;12.17;10.67;;;;;;;16.79;85.07;99636.66;4994367;28;20244;-73
2023/08/01 08:59:33;;;;;;;11.77;10.70;;;;;;;16.70;85.10;99636.09;4994252;28;20178;-73
2023/08/01 09:02:01;;;;;;;15.17;10.13;;;;;;;16.74;86.78;99640.00;4993771;28;20204;-73
2023/08/01 09:04:27;;;;;;;16.10;10.00;;;;;;;16.82;85.70;99638.91;4993743;28;20216;-72
2023/08/01 09:07:01;;;;;;;14.03;9.33;;;;;;;16.97;85.65;99639.44;4993833;28;20190;-72
2023/08/01 09:09:27;;;;;;;13.73;9.80;;;;;;;17.13;85.58;99630.78;4994403;28;20178;-73
2023/08/01 09:11:57;;;;;;;11.47;10.47;;;;;;;17.22;84.01;99634.88;4994045;28;20683;-73
2023/08/01 09:14:24;;;;;;;10.70;9.60;;;;;;;17.25;83.06;99636.28;4993674;28;20259;-72
2023/08/01 09:16:50;;;;;;;10.93;9.97;;;;;;;17.34;82.23;99641.19;4994494;28;20189;-72
2023/08/01 09:19:18;;;;;;;9.97;9.07;;;;;;;17.34;81.18;99641.19;4993926;28;20185;-72
2023/08/01 09:21:45;;;;;;;9.70;8.10;;;;;;;17.29;81.97;99641.03;4993651;28;20252;-72
2023/08/01 09:24:17;;;;;;;15.90;9.43;;;;;;;17.30;81.78;99644.56;4993627;28;20769;-73
2023/08/01 09:26:45;;;;;;;13.57;9.53;;;;;;;17.29;81.41;99641.03;4993942;28;20205;-73
2023/08/01 09:29:11;;;;;;;11.77;9.30;;;;;;;17.38;82.23;99643.44;4993583;28;20200;-73
2023/08/01 09:31:40;;;;;;;10.90;8.70;;;;;;;17.33;80.75;99652.22;4993682;28;20189;-72
2023/08/01 09:34:21;;;;;;;8.97;8.23;;;;;;;17.29;81.27;99643.72;4996723;28;20213;-72
2023/08/01 09:36:48;;;;;;;8.80;8.20;;;;;;;17.39;79.92;99650.50;4997673;28;20629;-73
2023/08/01 09:39:19;;;;;;;12.03;8.33;;;;;;;17.39;78.54;99645.94;4997916;28;20240;-73
2023/08/01 09:41:54;;;;;;;9.43;8.57;;;;;;;17.44;79.22;99637.97;4997277;28;20711;-72
2023/08/01 09:44:21;;;;;;;8.60;7.97;;;;;;;17.50;78.56;99649.75;4997489;28;20208;-73
2023/08/01 09:47:03;;;;;;;7.67;7.17;;;;;;;17.49;79.05;99651.63;4997517;28;20568;-72
2023/08/01 09:49:30;;;;;;;8.47;7.80;;;;;;;17.55;78.50;99637.25;4997185;28;20185;-72
2023/08/01 09:51:58;;;;;;;7.77;7.27;;;;;;;17.63;77.53;99639.69;4997400;28;20580;-72
2023/08/01 09:54:25;;;;;;;9.53;7.67;;;;;;;17.67;77.83;99640.06;4997158;28;20696;-72
2023/08/01 09:56:53;;;;;;;7.97;7.07;;;;;;;17.81;77.10;99644.28;4997364;28;20193;-73
2023/08/01 09:59:21;;;;;;;7.83;7.27;;;;;;;17.88;77.28;99634.22;4997305;28;20664;-72
2023/08/01 10:01:50;;;;;;;11.13;7.30;;;;;;;17.85;76.94;99631.97;4996895;28;20193;-72
2023/08/01 10:04:36;;;;;;;8.40;8.07;;;;;;;17.89;76.95;99627.75;4996825;28;20217;-72
2023/08/01 10:07:11;;;;;;;9.33;6.97;;;;;;;17.96;77.63;99639.31;4996947;28;20181;-72
2023/08/01 10:09:37;;;;;;;7.40;6.70;;;;;;;17.86;76.37;99644.44;4997625;28;20185;-72
2023/08/01 10:12:05;;;;;;;7.33;7.00;;;;;;;17.74;77.30;99648.91;4996916;28;20680;-72
2023/08/01 10:14:33;;;;;;;6.27;6.03;;;;;;;17.66;77.40;99649.22;4995431;28;20221;-72
2023/08/01 10:17:01;;;;;;;11.03;7.00;;;;;;;17.69;78.19;99636.09;4997247;28;20648;-72
2023/08/01 10:19:32;;;;;;;6.80;6.60;;;;;;;17.63;78.02;99642.38;4997327;28;20276;-72
2023/08/01 10:22:00;;;;;;;11.43;6.93;;;;;;;17.56;78.19;99643.47;4996593;28;20192;-72
2023/08/01 10:24:29;;;;;;;6.43;6.03;;;;;;;17.57;79.47;99659.47;4996538;28;20216;-72
2023/08/01 10:26:55;;;;;;;7.20;6.67;;;;;;;17.61;78.06;99657.19;4997097;28;20186;-72
2023/08/01 10:29:21;;;;;;;10.90;6.03;;;;;;;17.52;78.09;99653.09;4996459;28;20255;-72
2023/08/01 10:31:52;;;;;;;11.00;6.10;;;;;;;17.58;77.66;99644.09;4996423;28;20220;-72
2023/08/01 10:34:21;;;;;;;8.97;5.73;;;;;;;17.53;77.39;99650.16;4996389;28;20209;-72
2023/08/01 10:36:58;;;;;;;6.40;6.30;;;;;;;17.59;78.18;99657.41;4996313;28;20194;-72
2023/08/01 10:39:26;;;;;;;6.60;6.23;;;;;;;17.58;77.82;99657.63;4996783;28;20531;-72
2023/08/01 10:42:05;;;;;;;6.37;6.07;;;;;;;17.58;78.39;99655.75;4996692;28;20591;-72
2023/08/01 10:44:34;;;;;;;6.20;5.70;;;;;;;17.55;77.57;99672.38;4996071;28;20778;-72
2023/08/01 10:47:02;;;;;;;6.27;5.83;;;;;;;17.28;80.44;99685.28;4995489;28;20220;-71
2023/08/01 10:49:40;;;;;;;15.97;6.27;;;;;;;16.76;84.39;99682.97;4996362;28;20200;-72
2023/08/01 10:52:23;;;;;;;6.27;5.60;;;;;;;16.44;86.10;99673.97;4996562;28;20260;-72
2023/08/01 10:55:00;;;;;;;10.97;6.93;;;;;;;16.31;86.99;99677.56;4996504;28;20209;-72
2023/08/01 10:57:31;;;;;;;7.30;6.53;;;;;;;16.19;86.91;99681.16;4995971;28;20182;-73
2023/08/01 10:59:58;;;;;;;8.30;7.57;;;;;;;16.20;86.95;99685.50;4996198;28;20181;-73
2023/08/01 11:02:27;;;;;;;9.83;6.30;;;;;;;16.22;86.63;99683.41;4996040;28;20255;-73
2023/08/01 11:05:07;;;;;;;11.40;6.90;;;;;;;16.20;87.01;99678.25;4994563;28;20193;-73
2023/08/01 11:07:34;;;;;;;12.73;6.93;;;;;;;16.33;88.23;99686.28;5002802;28;20255;-72
2023/08/01 11:10:13;;;;;;;8.73;6.87;;;;;;;16.44;88.57;99690.16;5014190;28;20201;-73
2023/08/01 11:12:42;;;;;;;6.47;6.23;;;;;;;16.55;87.39;99688.69;5015445;28;20620;-73
2023/08/01 11:15:10;;;;;;;7.47;5.97;;;;;;;16.60;86.08;99688.88;5013773;28;20246;-73
2023/08/01 11:17:38;;;;;;;7.13;6.87;;;;;;;16.69;87.09;99701.06;5014258;28;20212;-72
2023/08/01 11:20:09;;;;;;;14.73;5.80;;;;;;;16.89;86.43;99696.38;5015113;28;20193;-73
2023/08/01 11:22:37;;;;;;;15.63;6.20;;;;;;;16.95;84.08;99710.88;5014944;28;20205;-73
2023/08/01 11:25:05;;;;;;;6.70;6.30;;;;;;;17.08;84.11;99708.94;5015269;28;20251;-73